Bandar-E Mahshahr, Iran
Current Conditions -  °F | °C
As of 9:00 PM on Friday 21 Nov 2014 (Local Time) from OIAM Reporting Station
Scattered Clouds Scattered Clouds  
Wind Chill: 61°   Ceiling: Unl
Heat Index: 61°   Visibility: 6mi
Dew Point: 54°   Wind: 0mph
Humidity: 77%   Direction: NA
Pressure: 30.03"   Gusts: NA
Location:  30.65°N, 49.22°E
Report Text: OIAM 211800Z 00000KT 9999 SCT040 16/12 Q1017
Loading
Personal Weather Stations






























Interactive Weather Map New forecast layout! Learn more

10-Day Weather Forecast

Advertisements
Track Severe Weather on mobile